createdAt,value
2019-02-21T00:01:20.563Z,4.50
2019-02-21T00:03:46.639Z,4.50
2019-02-21T00:06:12.787Z,4.50
2019-02-21T00:08:38.883Z,4.50
2019-02-21T00:11:05.072Z,4.40
2019-02-21T00:13:31.145Z,4.40
2019-02-21T00:15:57.260Z,4.40
2019-02-21T00:18:23.355Z,4.50
2019-02-21T00:20:49.448Z,4.50
2019-02-21T00:23:15.520Z,4.50
2019-02-21T00:25:41.616Z,4.50
2019-02-21T00:28:07.680Z,4.50
2019-02-21T00:30:35.496Z,4.50
2019-02-21T00:33:01.760Z,4.50
2019-02-21T00:35:27.825Z,4.40
2019-02-21T00:37:53.912Z,4.40
2019-02-21T00:40:20.088Z,4.50
2019-02-21T00:42:46.205Z,4.50
2019-02-21T00:45:12.369Z,4.50
2019-02-21T00:47:38.469Z,4.40
2019-02-21T00:50:04.700Z,4.40
2019-02-21T00:52:31.480Z,4.40
2019-02-21T00:54:57.777Z,4.40
2019-02-21T00:57:23.905Z,4.40
2019-02-21T00:59:50.865Z,4.40
2019-02-21T01:02:17.980Z,4.40
2019-02-21T01:04:44.074Z,4.40
2019-02-21T01:07:10.215Z,4.40
2019-02-21T01:09:36.284Z,4.40
2019-02-21T01:12:02.373Z,4.30
2019-02-21T01:14:28.552Z,4.30
2019-02-21T01:16:54.840Z,4.20
2019-02-21T01:19:20.982Z,4.20
2019-02-21T01:21:47.063Z,4.30
2019-02-21T01:24:13.142Z,4.40
2019-02-21T01:26:39.228Z,4.40
2019-02-21T01:29:05.321Z,4.40
2019-02-21T01:31:31.512Z,4.40
2019-02-21T01:33:57.595Z,4.30
2019-02-21T01:36:23.767Z,4.40
2019-02-21T01:38:49.852Z,4.40
2019-02-21T01:41:15.937Z,4.30
2019-02-21T01:43:42.132Z,4.20
2019-02-21T01:46:08.198Z,4.20
2019-02-21T01:48:34.863Z,4.20
2019-02-21T01:51:01.063Z,4.10
2019-02-21T01:53:27.155Z,4.10
2019-02-21T01:56:13.115Z,4.10
2019-02-21T01:58:39.223Z,3.80
2019-02-21T02:01:08.470Z,4.10
2019-02-21T02:03:33.300Z,4.00
2019-02-21T02:05:59.363Z,4.00
2019-02-21T02:08:25.457Z,4.00
2019-02-21T02:10:51.571Z,4.00
2019-02-21T02:13:24.516Z,4.10
2019-02-21T02:15:45.937Z,4.10
2019-02-21T02:18:12.024Z,4.00
2019-02-21T02:20:38.261Z,4.10
2019-02-21T02:23:04.376Z,4.10
2019-02-21T02:25:30.453Z,4.10
2019-02-21T02:27:56.551Z,4.10
2019-02-21T02:30:22.642Z,4.00
2019-02-21T02:32:48.732Z,4.00
2019-02-21T02:35:14.804Z,4.00
2019-02-21T02:37:40.903Z,4.00
2019-02-21T02:40:06.975Z,4.00
2019-02-21T02:42:33.175Z,4.00
2019-02-21T02:44:59.273Z,3.90
2019-02-21T02:47:25.427Z,3.90
2019-02-21T02:49:51.508Z,3.80
2019-02-21T02:52:17.596Z,3.80
2019-02-21T02:54:43.797Z,3.80
2019-02-21T02:57:10.180Z,3.70
2019-02-21T02:59:40.809Z,3.70
2019-02-21T03:02:04.243Z,3.70
2019-02-21T03:04:30.409Z,3.70
2019-02-21T03:06:56.560Z,3.60
2019-02-21T03:09:22.740Z,3.60
2019-02-21T03:11:51.716Z,3.60
2019-02-21T03:14:16.824Z,3.50
2019-02-21T03:16:42.904Z,3.50
2019-02-21T03:19:08.997Z,3.50
2019-02-21T03:21:35.064Z,3.50
2019-02-21T03:24:01.643Z,3.60
2019-02-21T03:26:27.729Z,3.60
2019-02-21T03:28:53.820Z,3.60
2019-02-21T03:31:19.912Z,3.70
2019-02-21T03:33:46.201Z,3.70
2019-02-21T03:36:12.281Z,3.60
2019-02-21T03:38:38.483Z,3.60
2019-02-21T03:41:05.344Z,3.60
2019-02-21T03:43:31.451Z,3.50
2019-02-21T03:45:57.533Z,3.60
2019-02-21T03:48:23.608Z,3.50
2019-02-21T03:50:49.797Z,3.60
2019-02-21T03:53:15.905Z,3.60
2019-02-21T03:55:41.992Z,3.50
2019-02-21T03:58:08.063Z,3.50
2019-02-21T04:00:34.464Z,3.50
2019-02-21T04:03:00.726Z,3.40
2019-02-21T04:05:26.810Z,3.40
2019-02-21T04:07:52.881Z,3.40
2019-02-21T04:10:18.975Z,3.30
2019-02-21T04:12:45.162Z,3.30
2019-02-21T04:15:12.565Z,3.20
2019-02-21T04:17:38.646Z,3.30
2019-02-21T04:20:05.713Z,3.20
2019-02-21T04:22:31.789Z,3.20
2019-02-21T04:24:57.888Z,3.20
2019-02-21T04:27:23.950Z,3.10
2019-02-21T04:29:50.048Z,3.10
2019-02-21T04:32:17.155Z,3.00
2019-02-21T04:34:43.555Z,3.00
2019-02-21T04:37:09.646Z,2.90
2019-02-21T04:39:35.750Z,2.90
2019-02-21T04:42:01.817Z,2.80
2019-02-21T04:44:27.915Z,2.90
2019-02-21T04:46:53.997Z,2.90
2019-02-21T04:49:20.176Z,2.80
2019-02-21T04:51:46.262Z,2.90
2019-02-21T04:54:12.342Z,2.90
2019-02-21T04:56:38.460Z,2.80
2019-02-21T04:59:06.606Z,2.80
2019-02-21T05:01:32.523Z,2.80
2019-02-21T05:03:58.591Z,2.70
2019-02-21T05:06:24.696Z,2.80
2019-02-21T05:08:50.773Z,2.80
2019-02-21T05:11:16.860Z,2.70
2019-02-21T05:13:42.981Z,2.60
2019-02-21T05:16:09.072Z,2.50
2019-02-21T05:18:35.139Z,2.50
2019-02-21T05:21:01.228Z,2.50
2019-02-21T05:23:27.295Z,2.60
2019-02-21T05:25:53.479Z,2.50
2019-02-21T05:28:27.395Z,2.50
2019-02-21T05:30:55.370Z,2.50
2019-02-21T05:33:25.906Z,2.40
2019-02-21T05:35:56.558Z,2.40
2019-02-21T05:38:30.159Z,2.40
2019-02-21T05:40:58.127Z,2.40
2019-02-21T05:43:32.422Z,2.30
2019-02-21T05:46:09.610Z,2.40
2019-02-21T05:48:40.257Z,2.40
2019-02-21T05:51:07.506Z,2.40
2019-02-21T05:53:35.484Z,2.40
2019-02-21T05:56:03.475Z,1.50
2019-02-21T05:58:34.373Z,2.40
2019-02-21T06:01:11.507Z,2.40
2019-02-21T06:03:48.217Z,2.40
2019-02-21T06:06:17.308Z,2.40
2019-02-21T06:08:54.682Z,2.40
2019-02-21T06:11:22.778Z,2.40
2019-02-21T06:13:56.989Z,2.40
2019-02-21T06:16:34.113Z,2.40
2019-02-21T06:19:11.182Z,2.40
2019-02-21T06:21:39.163Z,2.40
2019-02-21T06:24:12.694Z,2.40
2019-02-21T06:26:46.386Z,2.30
2019-02-21T06:29:17.560Z,2.30
2019-02-21T06:31:43.712Z,2.30
2019-02-21T06:34:09.797Z,2.40
2019-02-21T06:36:35.892Z,2.30
2019-02-21T06:39:03.958Z,2.30
2019-02-21T06:41:30.126Z,2.40
2019-02-21T06:43:56.988Z,2.40
2019-02-21T06:46:23.300Z,2.40
2019-02-21T06:48:51.553Z,2.50
2019-02-21T06:51:17.361Z,2.60
2019-02-21T06:53:43.455Z,2.60
2019-02-21T06:56:09.532Z,2.50
2019-02-21T06:58:35.606Z,2.60
2019-02-21T07:01:01.690Z,2.60
2019-02-21T07:03:29.062Z,2.70
2019-02-21T07:05:55.372Z,2.80
2019-02-21T07:08:21.442Z,2.90
2019-02-21T07:10:47.636Z,2.90
2019-02-21T07:13:25.776Z,3.00
2019-02-21T07:15:41.735Z,3.00
2019-02-21T07:18:07.815Z,3.20
2019-02-21T07:20:33.893Z,3.20
2019-02-21T07:22:59.979Z,3.30
2019-02-21T07:25:27.956Z,3.40
2019-02-21T07:27:54.047Z,3.50
2019-02-21T07:30:23.036Z,3.60
2019-02-21T07:32:48.124Z,3.70
2019-02-21T07:35:14.200Z,3.90
2019-02-21T07:38:00.152Z,4.10
2019-02-21T07:40:26.326Z,4.20
2019-02-21T07:42:52.424Z,4.30
2019-02-21T07:45:18.504Z,4.40
2019-02-21T07:47:44.600Z,4.60
2019-02-21T07:50:10.704Z,4.70
2019-02-21T07:52:36.768Z,4.90
2019-02-21T07:55:05.039Z,5.00
2019-02-21T07:57:31.136Z,5.10
2019-02-21T07:59:57.220Z,5.20
2019-02-21T08:02:23.321Z,5.30
2019-02-21T08:04:49.401Z,5.30
2019-02-21T08:07:15.500Z,5.20
2019-02-21T08:09:41.817Z,5.20
2019-02-21T08:12:08.064Z,5.20
2019-02-21T08:14:34.163Z,5.40
2019-02-21T08:17:00.245Z,5.50
2019-02-21T08:19:26.313Z,5.70
2019-02-21T08:21:52.507Z,6.00
2019-02-21T08:24:18.680Z,6.20
2019-02-21T08:26:44.776Z,6.30
2019-02-21T08:29:10.874Z,6.60
2019-02-21T08:31:36.944Z,6.70
2019-02-21T08:34:04.940Z,6.90
2019-02-21T08:36:31.060Z,7.10
2019-02-21T08:38:57.175Z,7.40
2019-02-21T08:41:25.703Z,7.60
2019-02-21T08:43:51.288Z,7.90
2019-02-21T08:46:18.294Z,8.10
2019-02-21T08:48:44.662Z,8.30
2019-02-21T08:51:10.755Z,8.40
2019-02-21T08:53:36.816Z,8.50
2019-02-21T08:56:02.929Z,8.80
2019-02-21T08:58:29.005Z,9.00
2019-02-21T09:00:55.099Z,9.20
2019-02-21T09:03:21.286Z,9.40
2019-02-21T09:05:47.394Z,9.50
2019-02-21T09:08:13.475Z,9.70
2019-02-21T09:10:39.556Z,9.50
2019-02-21T09:13:05.842Z,9.50
2019-02-21T09:15:31.907Z,9.60
2019-02-21T09:17:58.007Z,9.50
2019-02-21T09:20:24.070Z,9.70
2019-02-21T09:22:50.181Z,9.80
2019-02-21T09:25:16.259Z,10.00
2019-02-21T09:27:42.334Z,10.20
2019-02-21T09:30:14.100Z,10.40
2019-02-21T09:32:41.980Z,10.60
2019-02-21T09:35:08.148Z,10.60
2019-02-21T09:37:34.227Z,10.60
2019-02-21T09:40:00.344Z,10.80
2019-02-21T09:42:26.432Z,11.00
2019-02-21T09:44:52.549Z,11.10
2019-02-21T09:47:18.637Z,11.40
2019-02-21T09:49:44.708Z,11.40
2019-02-21T09:52:10.828Z,11.40
2019-02-21T09:54:36.996Z,11.50
2019-02-21T09:57:12.837Z,11.30
2019-02-21T09:59:31.077Z,11.30
2019-02-21T10:01:57.671Z,11.00
2019-02-21T10:04:31.849Z,11.00
2019-02-21T10:06:52.055Z,11.00
2019-02-21T10:09:18.136Z,11.10
2019-02-21T10:11:44.226Z,11.30
2019-02-21T10:14:10.303Z,11.40
2019-02-21T10:16:36.392Z,11.60
2019-02-21T10:19:02.846Z,11.60
2019-02-21T10:21:28.919Z,11.70
2019-02-21T10:23:56.713Z,11.80
2019-02-21T10:26:22.976Z,12.00
2019-02-21T10:28:49.091Z,12.00
2019-02-21T10:31:15.256Z,12.10
2019-02-21T10:33:46.842Z,12.50
2019-02-21T10:36:09.358Z,13.00
2019-02-21T10:38:35.532Z,12.90
2019-02-21T10:41:01.616Z,12.80
2019-02-21T10:43:27.731Z,13.00
2019-02-21T10:45:53.827Z,13.40
2019-02-21T10:48:20.023Z,13.70
2019-02-21T10:50:46.195Z,13.70
2019-02-21T10:53:12.276Z,13.90
2019-02-21T10:55:38.475Z,14.30
2019-02-21T10:58:04.665Z,14.20
2019-02-21T11:00:30.935Z,13.90
2019-02-21T11:02:57.036Z,13.40
2019-02-21T11:05:23.221Z,13.10
2019-02-21T11:07:49.397Z,12.90
2019-02-21T11:10:21.677Z,12.80
2019-02-21T11:12:47.812Z,13.00
2019-02-21T11:15:19.242Z,13.20
2019-02-21T11:17:45.296Z,13.30
2019-02-21T11:20:16.282Z,13.50
2019-02-21T11:22:42.342Z,13.60
2019-02-21T11:25:10.021Z,13.80
2019-02-21T11:27:36.081Z,13.90
2019-02-21T11:30:05.241Z,14.30
2019-02-21T11:32:31.324Z,14.40
2019-02-21T11:35:05.861Z,14.40
2019-02-21T11:37:25.367Z,14.30
2019-02-21T11:39:51.441Z,14.50
2019-02-21T11:42:17.527Z,14.40
2019-02-21T11:44:43.589Z,14.20
2019-02-21T11:47:09.711Z,14.30
2019-02-21T11:49:35.789Z,14.40
2019-02-21T11:52:09.867Z,14.20
2019-02-21T11:54:29.877Z,13.80
2019-02-21T11:56:55.951Z,13.50
2019-02-21T11:59:22.040Z,13.40
2019-02-21T12:01:48.216Z,13.40
2019-02-21T12:04:14.312Z,13.10
2019-02-21T12:06:40.404Z,13.00
2019-02-21T12:09:06.624Z,13.10
2019-02-21T12:11:32.699Z,13.00
2019-02-21T12:13:58.768Z,13.10
2019-02-21T12:16:24.900Z,13.30
2019-02-21T12:18:50.964Z,13.50
2019-02-21T12:21:17.071Z,13.60
2019-02-21T12:23:43.143Z,13.60
2019-02-21T12:26:09.241Z,13.70
2019-02-21T12:28:35.410Z,13.90
2019-02-21T12:31:01.504Z,14.30
2019-02-21T12:33:27.679Z,14.70
2019-02-21T12:35:53.770Z,14.90
2019-02-21T12:38:19.844Z,15.10
2019-02-21T12:40:45.971Z,14.80
2019-02-21T12:43:12.133Z,14.50
2019-02-21T12:45:38.223Z,14.40
2019-02-21T12:48:04.318Z,14.30
2019-02-21T12:50:30.395Z,14.50
2019-02-21T12:52:56.579Z,14.50
2019-02-21T12:55:29.190Z,14.20
2019-02-21T12:57:50.639Z,14.00
2019-02-21T13:00:20.721Z,14.00
2019-02-21T13:02:46.803Z,14.00
2019-02-21T13:05:12.979Z,14.20
2019-02-21T13:07:39.079Z,14.20
2019-02-21T13:10:11.721Z,14.40
2019-02-21T13:12:37.833Z,14.30
2019-02-21T13:15:06.900Z,14.50
2019-02-21T13:17:33.013Z,14.50
2019-02-21T13:19:59.090Z,14.50
2019-02-21T13:22:25.176Z,14.30
2019-02-21T13:24:51.296Z,14.30
2019-02-21T13:27:17.375Z,14.20
2019-02-21T13:29:43.476Z,14.20
2019-02-21T13:32:09.552Z,14.00
2019-02-21T13:34:37.557Z,14.20
2019-02-21T13:37:03.770Z,14.40
2019-02-21T13:39:29.940Z,14.50
2019-02-21T13:41:56.051Z,14.60
2019-02-21T13:44:22.155Z,14.90
2019-02-21T13:46:48.231Z,15.00
2019-02-21T13:49:14.305Z,15.50
2019-02-21T13:51:40.397Z,15.90
2019-02-21T13:54:06.469Z,16.10
2019-02-21T13:56:32.584Z,16.40
2019-02-21T13:58:58.885Z,16.90
2019-02-21T14:01:25.044Z,17.00
2019-02-21T14:03:51.134Z,17.00
2019-02-21T14:06:19.160Z,16.50
2019-02-21T14:08:45.212Z,16.10
2019-02-21T14:11:11.288Z,15.60
2019-02-21T14:13:37.396Z,15.10
2019-02-21T14:16:03.470Z,14.70
2019-02-21T14:18:29.565Z,14.10
2019-02-21T14:20:55.635Z,14.00
2019-02-21T14:23:21.731Z,13.90
2019-02-21T14:25:47.801Z,13.90
2019-02-21T14:28:13.872Z,14.00
2019-02-21T14:30:39.959Z,14.90
2019-02-21T14:33:06.043Z,16.00
2019-02-21T14:35:32.128Z,15.80
2019-02-21T14:37:58.193Z,15.50
2019-02-21T14:40:24.290Z,15.10
2019-02-21T14:42:50.384Z,14.80
2019-02-21T14:45:17.887Z,14.40
2019-02-21T14:47:44.041Z,14.30
2019-02-21T14:50:11.243Z,14.10
2019-02-21T14:52:37.319Z,13.90
2019-02-21T14:55:06.123Z,13.60
2019-02-21T14:57:40.426Z,14.20
2019-02-21T15:00:00.409Z,15.30
2019-02-21T15:02:26.684Z,16.20
2019-02-21T15:04:52.856Z,16.60
2019-02-21T15:07:18.960Z,17.40
2019-02-21T15:09:45.707Z,17.60
2019-02-21T15:12:12.015Z,17.60
2019-02-21T15:14:38.100Z,17.40
2019-02-21T15:17:04.189Z,17.60
2019-02-21T15:19:30.272Z,17.80
2019-02-21T15:21:56.353Z,17.60
2019-02-21T15:24:22.439Z,17.50
2019-02-21T15:26:48.512Z,16.90
2019-02-21T15:29:14.604Z,16.40
2019-02-21T15:31:40.677Z,15.80
2019-02-21T15:34:06.761Z,14.90
2019-02-21T15:36:38.223Z,14.20
2019-02-21T15:39:00.868Z,13.50
2019-02-21T15:41:26.960Z,13.00
2019-02-21T15:43:53.048Z,12.50
2019-02-21T15:46:19.137Z,12.20
2019-02-21T15:48:45.221Z,12.10
2019-02-21T15:51:11.292Z,11.90
2019-02-21T15:53:37.392Z,11.80
2019-02-21T15:56:03.468Z,11.70
2019-02-21T15:58:29.650Z,11.60
2019-02-21T16:00:55.718Z,11.60
2019-02-21T16:03:21.789Z,11.50
2019-02-21T16:05:47.879Z,11.50
2019-02-21T16:08:13.958Z,11.50
2019-02-21T16:10:40.120Z,11.50
2019-02-21T16:13:06.282Z,11.40
2019-02-21T16:15:32.442Z,11.40
2019-02-21T16:17:58.609Z,11.30
2019-02-21T16:20:24.732Z,11.30
2019-02-21T16:22:50.911Z,11.40
2019-02-21T16:25:28.612Z,11.50
2019-02-21T16:27:55.633Z,11.50
2019-02-21T16:30:22.223Z,11.50
2019-02-21T16:33:08.331Z,11.50
2019-02-21T16:35:34.443Z,11.40
2019-02-21T16:38:00.526Z,11.50
2019-02-21T16:40:26.651Z,11.60
2019-02-21T16:42:52.720Z,11.60
2019-02-21T16:45:19.900Z,11.60
2019-02-21T16:47:45.983Z,11.60
2019-02-21T16:50:13.073Z,11.50
2019-02-21T16:52:39.271Z,11.50
2019-02-21T16:55:11.103Z,11.50
2019-02-21T16:57:37.287Z,11.50
2019-02-21T17:00:07.172Z,11.50
2019-02-21T17:02:33.261Z,11.40
2019-02-21T17:04:59.339Z,11.40
2019-02-21T17:07:25.427Z,11.40
2019-02-21T17:09:51.508Z,11.30
2019-02-21T17:12:17.605Z,11.30
2019-02-21T17:14:43.680Z,11.20
2019-02-21T17:17:09.814Z,11.00
2019-02-21T17:19:35.963Z,11.00
2019-02-21T17:22:03.483Z,10.90
2019-02-21T17:24:30.764Z,10.80
2019-02-21T17:26:56.948Z,10.70
2019-02-21T17:29:26.031Z,10.60
2019-02-21T17:31:52.111Z,10.60
2019-02-21T17:34:18.215Z,10.70
2019-02-21T17:36:47.397Z,10.60
2019-02-21T17:39:13.480Z,10.70
2019-02-21T17:41:39.633Z,10.50
2019-02-21T17:44:05.750Z,11.10
2019-02-21T17:46:31.932Z,10.20
2019-02-21T17:48:58.011Z,10.00
2019-02-21T17:51:24.184Z,9.90
2019-02-21T17:53:50.287Z,9.90
2019-02-21T17:56:16.365Z,9.90
2019-02-21T17:58:42.432Z,9.90
2019-02-21T18:01:08.532Z,9.90
2019-02-21T18:03:34.617Z,10.00
2019-02-21T18:06:00.694Z,10.00
2019-02-21T18:08:26.770Z,10.00
2019-02-21T18:10:52.834Z,10.10
2019-02-21T18:13:18.934Z,10.00
2019-02-21T18:15:45.007Z,9.90
2019-02-21T18:18:11.086Z,10.00
2019-02-21T18:20:37.182Z,10.20
2019-02-21T18:23:03.526Z,10.10
2019-02-21T18:25:38.762Z,10.10
2019-02-21T18:28:04.923Z,10.10
2019-02-21T18:30:31.121Z,10.20
2019-02-21T18:32:57.322Z,10.20
2019-02-21T18:35:23.425Z,10.10
2019-02-21T18:37:49.533Z,10.10
2019-02-21T18:40:20.881Z,10.10
2019-02-21T18:42:46.803Z,10.10
2019-02-21T18:45:13.040Z,10.00
2019-02-21T18:47:39.138Z,10.00
2019-02-21T18:50:08.528Z,9.90
2019-02-21T18:52:34.595Z,9.90
2019-02-21T18:55:00.683Z,9.80
2019-02-21T18:57:26.768Z,9.60
2019-02-21T18:59:52.851Z,9.40
2019-02-21T19:02:19.864Z,9.10
2019-02-21T19:04:46.227Z,9.00
2019-02-21T19:07:32.207Z,8.80
2019-02-21T19:09:58.449Z,8.90
2019-02-21T19:12:24.515Z,8.80
2019-02-21T19:14:50.655Z,8.80
2019-02-21T19:17:16.805Z,8.90
2019-02-21T19:19:42.900Z,8.90
2019-02-21T19:22:08.976Z,9.00
2019-02-21T19:24:36.988Z,9.10
2019-02-21T19:27:03.364Z,9.10
2019-02-21T19:29:29.588Z,9.10
2019-02-21T19:31:55.760Z,9.00
2019-02-21T19:34:21.845Z,8.90
2019-02-21T19:36:48.044Z,8.70
2019-02-21T19:39:14.157Z,8.70
2019-02-21T19:41:40.340Z,8.60
2019-02-21T19:44:09.157Z,8.70
2019-02-21T19:46:34.417Z,8.70
2019-02-21T19:49:00.492Z,8.80
2019-02-21T19:51:26.615Z,8.80
2019-02-21T19:53:52.723Z,9.00
2019-02-21T19:56:18.902Z,9.00
2019-02-21T19:58:45.101Z,9.00
2019-02-21T20:01:11.196Z,9.10
2019-02-21T20:03:37.271Z,9.10
2019-02-21T20:06:03.472Z,9.00
2019-02-21T20:08:29.564Z,9.10
2019-02-21T20:10:55.687Z,9.20
2019-02-21T20:13:22.153Z,9.20
2019-02-21T20:15:48.352Z,9.20
2019-02-21T20:18:14.451Z,9.20
2019-02-21T20:20:40.724Z,9.10
2019-02-21T20:23:06.829Z,9.20
2019-02-21T20:25:33.020Z,9.20
2019-02-21T20:27:59.101Z,9.20
2019-02-21T20:30:25.479Z,9.20
2019-02-21T20:32:51.578Z,9.20
2019-02-21T20:35:17.749Z,9.10
2019-02-21T20:37:43.855Z,9.10
2019-02-21T20:40:10.637Z,9.10
2019-02-21T20:42:36.840Z,9.10
2019-02-21T20:45:08.625Z,9.00
2019-02-21T20:47:34.723Z,9.00
2019-02-21T20:50:00.832Z,9.00
2019-02-21T20:52:26.912Z,8.90
2019-02-21T20:54:52.999Z,8.80
2019-02-21T20:57:19.192Z,8.80
2019-02-21T20:59:45.271Z,8.90
2019-02-21T21:02:11.671Z,8.80
2019-02-21T21:04:37.914Z,8.70
2019-02-21T21:07:04.012Z,8.60
2019-02-21T21:09:30.096Z,8.30
2019-02-21T21:11:56.196Z,8.10
2019-02-21T21:14:22.291Z,8.00
2019-02-21T21:16:48.457Z,8.00
2019-02-21T21:19:14.643Z,7.80
2019-02-21T21:21:43.770Z,7.40
2019-02-21T21:24:10.050Z,7.90
2019-02-21T21:26:36.168Z,6.90
2019-02-21T21:29:02.274Z,6.70
2019-02-21T21:31:28.351Z,6.70
2019-02-21T21:33:54.432Z,6.60
2019-02-21T21:36:20.532Z,6.50
2019-02-21T21:38:53.701Z,6.30
2019-02-21T21:41:14.615Z,6.10
2019-02-21T21:43:40.720Z,6.00
2019-02-21T21:46:06.808Z,5.90
2019-02-21T21:48:32.986Z,5.90
2019-02-21T21:50:59.113Z,6.00
2019-02-21T21:53:25.200Z,6.10
2019-02-21T21:55:51.274Z,6.10
2019-02-21T21:58:17.371Z,6.20
2019-02-21T22:00:43.540Z,6.10
2019-02-21T22:03:09.648Z,6.10
2019-02-21T22:05:35.843Z,6.20
2019-02-21T22:08:01.935Z,6.40
2019-02-21T22:10:28.111Z,6.50
2019-02-21T22:12:54.181Z,6.50
2019-02-21T22:15:22.183Z,6.50
2019-02-21T22:17:48.360Z,6.60
2019-02-21T22:20:14.701Z,6.70
2019-02-21T22:22:41.511Z,6.70
2019-02-21T22:25:10.147Z,6.90
2019-02-21T22:27:36.227Z,7.00
2019-02-21T22:30:03.527Z,7.10
2019-02-21T22:32:29.597Z,7.10
2019-02-21T22:34:55.675Z,7.20
2019-02-21T22:37:21.764Z,7.20
2019-02-21T22:39:47.853Z,7.20
2019-02-21T22:42:13.996Z,7.10
2019-02-21T22:44:40.139Z,7.10
2019-02-21T22:47:06.241Z,7.00
2019-02-21T22:49:32.318Z,6.90
2019-02-21T22:51:58.400Z,7.00
2019-02-21T22:54:24.516Z,7.00
2019-02-21T22:56:50.673Z,7.10
2019-02-21T22:59:16.856Z,6.90
2019-02-21T23:01:43.133Z,6.80
2019-02-21T23:04:13.123Z,6.80
2019-02-21T23:06:49.099Z,6.80
2019-02-21T23:09:27.160Z,6.90
2019-02-21T23:11:47.864Z,7.00
2019-02-21T23:14:13.971Z,7.10
2019-02-21T23:16:40.044Z,7.10
2019-02-21T23:19:06.115Z,7.20
2019-02-21T23:21:32.236Z,7.20
2019-02-21T23:23:58.431Z,7.30
2019-02-21T23:26:24.563Z,7.30
2019-02-21T23:28:50.636Z,7.40
2019-02-21T23:31:16.720Z,7.30
2019-02-21T23:33:47.723Z,7.30
2019-02-21T23:36:13.827Z,7.20
2019-02-21T23:38:39.934Z,7.20
2019-02-21T23:41:06.007Z,7.10
2019-02-21T23:43:32.111Z,7.10
2019-02-21T23:45:58.197Z,7.10
2019-02-21T23:48:24.384Z,7.10
2019-02-21T23:50:50.454Z,7.10
2019-02-21T23:53:16.661Z,7.10
2019-02-21T23:55:42.751Z,7.20
2019-02-21T23:58:28.714Z,7.30
